Time;durP1;ratioP1;P1;durP2;ratioP2;P2;SDS_P1;SDS_P2;PMS_P1;PMS_P2;Temp;Humidity;BMP_temperature;BMP_pressure;BME280_temperature;BME280_humidity;BME280_pressure;Samples;Min_cycle;Max_cycle;Signal;HPM_P1;HPM_P2
2023/05/10 00:01:08;;;;;;;6.45;4.32;;;;;;;;;;10030630;28;20137;-58
2023/05/10 00:06:01;;;;;;;5.55;4.75;;;;;;;;;;10034375;28;20049;-58
2023/05/10 00:10:55;;;;;;;5.80;4.03;;;;;;;;;;10040109;28;20053;-58
2023/05/10 00:15:49;;;;;;;3.83;3.42;;;;;;;;;;10034685;28;20131;-58
2023/05/10 00:20:42;;;;;;;4.55;4.15;;;;;;;;;;10032316;28;20591;-58
2023/05/10 00:25:35;;;;;;;4.47;4.07;;;;;;;;;;10035821;28;20057;-59
2023/05/10 00:30:29;;;;;;;5.07;4.57;;;;;;;;;;10047578;28;20516;-58
2023/05/10 00:35:22;;;;;;;4.45;4.05;;;;;;;;;;10029473;28;20045;-58
2023/05/10 00:40:15;;;;;;;4.90;4.22;;;;;;;;;;10027314;28;20045;-58
2023/05/10 00:45:14;;;;;;;4.90;4.30;;;;;;;;;;10038887;28;20045;-58
2023/05/10 00:50:09;;;;;;;5.68;5.07;;;;;;;;;;10027921;28;20057;-58
2023/05/10 00:55:03;;;;;;;5.45;4.57;;;;;;;;;;10028840;28;20057;-58
2023/05/10 00:59:56;;;;;;;5.40;4.90;;;;;;;;;;10026674;28;20144;-58
2023/05/10 01:04:49;;;;;;;5.45;4.75;;;;;;;;;;10015299;28;20057;-58
2023/05/10 01:09:42;;;;;;;5.90;5.18;;;;;;;;;;10035012;28;20045;-58
2023/05/10 01:14:36;;;;;;;6.85;5.97;;;;;;;;;;10026381;28;20038;-58
2023/05/10 01:19:30;;;;;;;10.35;6.55;;;;;;;;;;10027777;28;20493;-59
2023/05/10 01:24:35;;;;;;;7.55;6.75;;;;;;;;;;10027062;28;20061;-58
2023/05/10 01:29:56;;;;;;;8.48;7.03;;;;;;;;;;10022193;28;20051;-58
2023/05/10 01:35:29;;;;;;;15.10;8.20;;;;;;;;;;10026680;28;20050;-61
2023/05/10 01:40:42;;;;;;;8.40;7.60;;;;;;;;;;10017427;28;20049;-58
2023/05/10 01:45:47;;;;;;;9.82;7.20;;;;;;;;;;10031905;28;20052;-58
2023/05/10 01:50:43;;;;;;;8.00;7.20;;;;;;;;;;10034768;28;20104;-58
2023/05/10 01:55:41;;;;;;;10.82;6.15;;;;;;;;;;10016516;28;20049;-60
2023/05/10 02:00:36;;;;;;;7.45;6.75;;;;;;;;;;10029816;28;20536;-60
2023/05/10 02:05:30;;;;;;;10.60;6.10;;;;;;;;;;10025234;28;20408;-60
2023/05/10 02:10:23;;;;;;;7.00;6.20;;;;;;;;;;10031850;28;20038;-60
2023/05/10 02:15:21;;;;;;;8.30;6.47;;;;;;;;;;10033442;28;20108;-61
2023/05/10 02:20:16;;;;;;;7.25;6.53;;;;;;;;;;10038277;28;20054;-58
2023/05/10 02:25:11;;;;;;;7.13;6.15;;;;;;;;;;10043756;28;20054;-58
2023/05/10 02:30:05;;;;;;;8.45;5.78;;;;;;;;;;10035256;28;20480;-58
2023/05/10 02:35:00;;;;;;;6.72;5.60;;;;;;;;;;10034386;28;20042;-58
2023/05/10 02:39:55;;;;;;;8.52;5.25;;;;;;;;;;10042902;28;20136;-58
2023/05/10 02:44:51;;;;;;;6.97;5.70;;;;;;;;;;10031734;28;20065;-58
2023/05/10 02:49:45;;;;;;;7.18;5.40;;;;;;;;;;10045218;28;20089;-60
2023/05/10 02:54:50;;;;;;;4.70;4.30;;;;;;;;;;10032404;28;20050;-61
2023/05/10 02:59:45;;;;;;;6.47;5.00;;;;;;;;;;10052771;28;20038;-60
2023/05/10 03:04:37;;;;;;;9.23;4.88;;;;;;;;;;10042686;28;20069;-60
2023/05/10 03:09:32;;;;;;;7.00;5.25;;;;;;;;;;10030939;28;20116;-61
2023/05/10 03:14:34;;;;;;;5.25;4.53;;;;;;;;;;10036642;28;20073;-60
2023/05/10 03:19:34;;;;;;;5.88;5.28;;;;;;;;;;10013554;28;20464;-60
2023/05/10 03:24:28;;;;;;;6.85;5.20;;;;;;;;;;10015560;28;20050;-60
2023/05/10 03:29:25;;;;;;;4.93;4.38;;;;;;;;;;10016108;28;20057;-60
2023/05/10 03:34:24;;;;;;;6.38;5.18;;;;;;;;;;10022434;28;20054;-59
2023/05/10 03:39:18;;;;;;;7.00;4.78;;;;;;;;;;10032229;28;20042;-60
2023/05/10 03:44:16;;;;;;;6.93;5.32;;;;;;;;;;10030842;28;20076;-59
2023/05/10 03:49:10;;;;;;;6.57;4.57;;;;;;;;;;10062746;28;20053;-59
2023/05/10 03:54:03;;;;;;;4.82;4.43;;;;;;;;;;10031755;28;20052;-59
2023/05/10 03:58:57;;;;;;;6.43;4.65;;;;;;;;;;10030307;28;20049;-59
2023/05/10 04:03:50;;;;;;;7.60;5.30;;;;;;;;;;10049722;28;20087;-60
2023/05/10 04:08:43;;;;;;;5.50;5.00;;;;;;;;;;10029558;28;20123;-60
2023/05/10 04:13:36;;;;;;;6.47;5.50;;;;;;;;;;10034867;28;20060;-58
2023/05/10 04:18:30;;;;;;;5.20;4.70;;;;;;;;;;10037567;28;20515;-60
2023/05/10 04:23:23;;;;;;;5.05;4.57;;;;;;;;;;10039829;28;20116;-60
2023/05/10 04:28:17;;;;;;;6.07;5.18;;;;;;;;;;10031687;28;20497;-60
2023/05/10 04:33:10;;;;;;;5.45;4.57;;;;;;;;;;10034277;28;20046;-60
2023/05/10 04:38:04;;;;;;;7.40;5.10;;;;;;;;;;10029431;28;20129;-60
2023/05/10 04:42:56;;;;;;;5.07;4.32;;;;;;;;;;10049945;28;20508;-60
2023/05/10 04:47:49;;;;;;;5.68;4.38;;;;;;;;;;10034085;28;20794;-60
2023/05/10 04:52:43;;;;;;;5.13;4.57;;;;;;;;;;10018848;28;20085;-59
2023/05/10 04:57:36;;;;;;;4.65;4.05;;;;;;;;;;10032688;28;20046;-60
2023/05/10 05:02:29;;;;;;;5.65;3.70;;;;;;;;;;10031983;28;20159;-60
2023/05/10 05:07:22;;;;;;;4.80;4.10;;;;;;;;;;10035279;28;20136;-59
2023/05/10 05:12:14;;;;;;;5.80;4.78;;;;;;;;;;10019964;28;20473;-59
2023/05/10 05:17:08;;;;;;;4.20;3.80;;;;;;;;;;10019122;28;20133;-61
2023/05/10 05:22:02;;;;;;;4.43;4.03;;;;;;;;;;10014716;28;20498;-58
2023/05/10 05:26:55;;;;;;;4.07;3.67;;;;;;;;;;10015660;28;20050;-58
2023/05/10 05:31:49;;;;;;;6.30;3.95;;;;;;;;;;10007411;28;20062;-59
2023/05/10 05:36:44;;;;;;;11.55;4.85;;;;;;;;;;10004553;28;20045;-58
2023/05/10 05:41:38;;;;;;;5.40;4.72;;;;;;;;;;10016013;28;20042;-60
2023/05/10 05:46:32;;;;;;;4.70;4.20;;;;;;;;;;10013227;28;20077;-58
2023/05/10 05:51:25;;;;;;;4.25;3.78;;;;;;;;;;10019744;28;20136;-59
2023/05/10 05:56:24;;;;;;;6.22;4.15;;;;;;;;;;10026954;28;20062;-59
2023/05/10 06:01:17;;;;;;;4.75;4.35;;;;;;;;;;10041828;28;20048;-59
2023/05/10 06:06:15;;;;;;;4.85;4.35;;;;;;;;;;10028569;28;20563;-58
2023/05/10 06:11:11;;;;;;;5.40;4.45;;;;;;;;;;10029789;28;20050;-59
2023/05/10 06:16:04;;;;;;;6.95;4.53;;;;;;;;;;10025850;28;20497;-59
2023/05/10 06:20:57;;;;;;;4.80;4.40;;;;;;;;;;10027157;28;20085;-59
2023/05/10 06:25:50;;;;;;;5.40;4.70;;;;;;;;;;10037502;28;20050;-59
2023/05/10 06:30:44;;;;;;;4.50;4.05;;;;;;;;;;10045935;28;20108;-59
2023/05/10 06:35:38;;;;;;;5.32;3.90;;;;;;;;;;10026338;28;20054;-59
2023/05/10 06:40:32;;;;;;;6.35;3.92;;;;;;;;;;10025880;28;20057;-59
2023/05/10 06:45:26;;;;;;;5.68;4.47;;;;;;;;;;10026250;28;20476;-59
2023/05/10 06:50:20;;;;;;;7.03;4.63;;;;;;;;;;10026237;28;20050;-61
2023/05/10 06:55:13;;;;;;;5.32;4.82;;;;;;;;;;10029701;28;20050;-61
2023/05/10 07:00:09;;;;;;;5.28;4.22;;;;;;;;;;10034697;28;20056;-61
2023/05/10 07:05:03;;;;;;;6.90;4.15;;;;;;;;;;10032583;28;20065;-59
2023/05/10 07:09:57;;;;;;;10.75;4.50;;;;;;;;;;10040129;28;20112;-61
2023/05/10 07:14:50;;;;;;;6.43;3.70;;;;;;;;;;10031993;28;20049;-59
2023/05/10 07:19:44;;;;;;;4.93;4.43;;;;;;;;;;10043883;28;20045;-59
2023/05/10 07:24:37;;;;;;;5.75;4.95;;;;;;;;;;10037197;28;20409;-59
2023/05/10 07:29:32;;;;;;;4.40;4.03;;;;;;;;;;10032052;28;20057;-59
2023/05/10 07:34:25;;;;;;;4.82;4.32;;;;;;;;;;10031871;28;20081;-62
2023/05/10 07:39:20;;;;;;;6.53;4.50;;;;;;;;;;10031071;28;20060;-59
2023/05/10 07:44:20;;;;;;;5.18;4.20;;;;;;;;;;10030886;28;20053;-59
2023/05/10 07:49:12;;;;;;;4.85;4.30;;;;;;;;;;10030383;28;20057;-60
2023/05/10 07:54:07;;;;;;;5.65;4.68;;;;;;;;;;10033489;28;20145;-60
2023/05/10 07:59:03;;;;;;;5.60;5.10;;;;;;;;;;10038414;28;20493;-59
2023/05/10 08:03:57;;;;;;;5.45;4.95;;;;;;;;;;10042066;28;20073;-61
2023/05/10 08:08:53;;;;;;;6.80;5.53;;;;;;;;;;10035397;28;20053;-61
2023/05/10 08:13:47;;;;;;;5.70;5.20;;;;;;;;;;10032496;28;20058;-61
2023/05/10 08:18:41;;;;;;;6.15;5.30;;;;;;;;;;10030223;28;20465;-61
2023/05/10 08:23:35;;;;;;;5.50;4.38;;;;;;;;;;10037971;28;20153;-61
2023/05/10 08:28:29;;;;;;;5.82;4.90;;;;;;;;;;10039067;28;20450;-61
2023/05/10 08:33:23;;;;;;;4.95;4.47;;;;;;;;;;10031680;28;20108;-61
2023/05/10 08:38:18;;;;;;;6.00;5.40;;;;;;;;;;10032479;28;20050;-61
2023/05/10 08:43:14;;;;;;;5.65;5.13;;;;;;;;;;10028934;28;20103;-61
2023/05/10 08:48:09;;;;;;;5.63;5.13;;;;;;;;;;10021293;28;20490;-60
2023/05/10 08:53:05;;;;;;;6.78;6.13;;;;;;;;;;10033783;28;20060;-61
2023/05/10 08:57:59;;;;;;;11.90;5.90;;;;;;;;;;10034933;28;20092;-60
2023/05/10 09:02:54;;;;;;;9.07;6.07;;;;;;;;;;10035112;28;20124;-61
2023/05/10 09:07:48;;;;;;;5.03;4.53;;;;;;;;;;10035567;28;20046;-61
2023/05/10 09:12:43;;;;;;;8.77;5.97;;;;;;;;;;10034491;28;20046;-60
2023/05/10 09:17:37;;;;;;;8.48;7.75;;;;;;;;;;10027242;28;20053;-60
2023/05/10 09:22:34;;;;;;;8.73;6.30;;;;;;;;;;10029816;28;20509;-60
2023/05/10 09:27:27;;;;;;;6.32;5.72;;;;;;;;;;10030040;28;20049;-61
2023/05/10 09:32:21;;;;;;;9.13;5.60;;;;;;;;;;10029273;28;20058;-60
2023/05/10 09:37:15;;;;;;;6.18;5.50;;;;;;;;;;10026961;28;20061;-61
2023/05/10 09:42:09;;;;;;;6.70;4.80;;;;;;;;;;10039131;28;20552;-61
2023/05/10 09:47:03;;;;;;;5.68;5.00;;;;;;;;;;10026630;28;20058;-61
2023/05/10 09:52:01;;;;;;;5.40;4.85;;;;;;;;;;10037470;28;20142;-61
2023/05/10 09:56:55;;;;;;;6.75;5.40;;;;;;;;;;10033292;28;20155;-61
2023/05/10 10:01:51;;;;;;;6.60;5.45;;;;;;;;;;10030562;28;20060;-60
2023/05/10 10:06:44;;;;;;;6.88;5.30;;;;;;;;;;10026951;28;20073;-61
2023/05/10 10:11:38;;;;;;;4.95;4.53;;;;;;;;;;10026077;28;20137;-61
2023/05/10 10:16:32;;;;;;;6.22;5.40;;;;;;;;;;10037038;28;20046;-61
2023/05/10 10:21:26;;;;;;;6.00;5.28;;;;;;;;;;10026700;28;20137;-60
2023/05/10 10:26:20;;;;;;;6.00;4.85;;;;;;;;;;10030950;28;20100;-60
2023/05/10 10:31:23;;;;;;;5.03;4.53;;;;;;;;;;10030966;28;20544;-60
2023/05/10 10:36:17;;;;;;;5.38;4.68;;;;;;;;;;10037175;28;20053;-61
2023/05/10 10:41:11;;;;;;;5.40;4.90;;;;;;;;;;10034383;28;20508;-60
2023/05/10 10:46:29;;;;;;;5.28;4.78;;;;;;;;;;10031870;28;20085;-60
2023/05/10 10:51:23;;;;;;;6.23;5.07;;;;;;;;;;10024164;28;20061;-60
2023/05/10 10:56:23;;;;;;;4.93;4.43;;;;;;;;;;10033190;28;20058;-61
2023/05/10 11:01:18;;;;;;;6.47;5.88;;;;;;;;;;10033839;28;20045;-61
2023/05/10 11:06:13;;;;;;;6.47;4.78;;;;;;;;;;10042156;28;20069;-61
2023/05/10 11:11:07;;;;;;;5.72;5.22;;;;;;;;;;10039951;28;20085;-61
2023/05/10 11:16:17;;;;;;;8.48;5.70;;;;;;;;;;10031981;28;20069;-60
2023/05/10 11:21:10;;;;;;;7.70;5.50;;;;;;;;;;10037800;28;20505;-60
2023/05/10 11:26:05;;;;;;;7.47;6.22;;;;;;;;;;10040926;28;20566;-60
2023/05/10 11:30:58;;;;;;;7.03;4.75;;;;;;;;;;10031292;28;20049;-60
2023/05/10 11:35:52;;;;;;;4.65;4.25;;;;;;;;;;10046809;28;20049;-60
2023/05/10 11:40:45;;;;;;;5.32;3.63;;;;;;;;;;10036199;28;20382;-60
2023/05/10 11:45:42;;;;;;;4.60;4.10;;;;;;;;;;10048713;28;20539;-60
2023/05/10 11:50:35;;;;;;;9.68;5.25;;;;;;;;;;10032039;28;20053;-60
2023/05/10 11:55:30;;;;;;;4.78;4.38;;;;;;;;;;10031193;28;20441;-60
2023/05/10 12:00:23;;;;;;;5.45;4.40;;;;;;;;;;10034925;28;20058;-60
2023/05/10 12:05:17;;;;;;;3.95;3.65;;;;;;;;;;10029368;28;20108;-60
2023/05/10 12:10:19;;;;;;;5.43;4.30;;;;;;;;;;10038918;28;20085;-60
2023/05/10 12:15:22;;;;;;;4.43;4.10;;;;;;;;;;10034113;28;20132;-60
2023/05/10 12:20:23;;;;;;;4.90;4.47;;;;;;;;;;10032880;28;20145;-60
2023/05/10 12:25:21;;;;;;;5.80;4.40;;;;;;;;;;10038589;28;20041;-61
2023/05/10 12:30:28;;;;;;;5.63;4.30;;;;;;;;;;10028588;28;20058;-60
2023/05/10 12:35:40;;;;;;;6.15;4.30;;;;;;;;;;10028362;28;20053;-61
2023/05/10 12:40:54;;;;;;;4.90;3.92;;;;;;;;;;10028560;28;20083;-61
2023/05/10 12:45:48;;;;;;;4.63;4.15;;;;;;;;;;10035047;28;20085;-61
2023/05/10 12:50:41;;;;;;;4.10;3.80;;;;;;;;;;10034574;28;20054;-61
2023/05/10 12:55:34;;;;;;;4.43;4.03;;;;;;;;;;10027695;28;20073;-62
2023/05/10 13:00:28;;;;;;;4.50;3.80;;;;;;;;;;10035146;28;20120;-61
2023/05/10 13:05:21;;;;;;;7.50;5.43;;;;;;;;;;10028580;28;20046;-61
2023/05/10 13:10:14;;;;;;;5.70;4.03;;;;;;;;;;10027009;28;20505;-62
2023/05/10 13:15:07;;;;;;;3.47;3.17;;;;;;;;;;10031904;28;20050;-62
2023/05/10 13:20:00;;;;;;;3.90;3.60;;;;;;;;;;10034181;28;20054;-61
2023/05/10 13:24:53;;;;;;;3.63;3.33;;;;;;;;;;10034737;28;20504;-60
2023/05/10 13:29:47;;;;;;;4.72;3.70;;;;;;;;;;10031036;28;20128;-60
2023/05/10 13:34:41;;;;;;;4.78;3.08;;;;;;;;;;10035622;28;20057;-61
2023/05/10 13:39:37;;;;;;;2.40;2.20;;;;;;;;;;10033627;28;20496;-61
2023/05/10 13:44:33;;;;;;;2.55;2.35;;;;;;;;;;10030453;28;20062;-60
2023/05/10 13:49:28;;;;;;;3.08;2.85;;;;;;;;;;10005436;28;20054;-66
2023/05/10 13:54:26;;;;;;;3.53;2.93;;;;;;;;;;10014789;28;20421;-64
2023/05/10 13:59:19;;;;;;;4.55;2.78;;;;;;;;;;10018791;28;20053;-60
2023/05/10 14:04:12;;;;;;;2.70;2.50;;;;;;;;;;10017512;28;20045;-62
2023/05/10 14:09:06;;;;;;;5.60;3.03;;;;;;;;;;10023019;28;20394;-62
2023/05/10 14:13:59;;;;;;;3.45;2.95;;;;;;;;;;10021728;28;20050;-60
2023/05/10 14:18:53;;;;;;;5.28;3.22;;;;;;;;;;10016303;28;20038;-60
2023/05/10 14:23:46;;;;;;;3.67;3.38;;;;;;;;;;10014016;28;20673;-60
2023/05/10 14:28:41;;;;;;;6.00;3.17;;;;;;;;;;10015347;28;20050;-61
2023/05/10 14:33:34;;;;;;;5.75;3.00;;;;;;;;;;10008273;28;20046;-61
2023/05/10 14:38:28;;;;;;;2.78;2.58;;;;;;;;;;10018841;28;20053;-60
2023/05/10 14:43:22;;;;;;;2.53;2.33;;;;;;;;;;10015595;28;20054;-61
2023/05/10 14:48:17;;;;;;;3.00;2.70;;;;;;;;;;10036774;28;20069;-60
2023/05/10 14:53:11;;;;;;;2.30;2.10;;;;;;;;;;10030640;28;20085;-60
2023/05/10 14:58:05;;;;;;;5.70;2.65;;;;;;;;;;10031144;28;20049;-60
2023/05/10 15:02:58;;;;;;;2.75;2.55;;;;;;;;;;10038650;28;20050;-60
2023/05/10 15:07:52;;;;;;;3.25;2.95;;;;;;;;;;10038688;28;20077;-60
2023/05/10 15:12:46;;;;;;;3.00;2.78;;;;;;;;;;10031734;28;20136;-60
2023/05/10 15:17:40;;;;;;;3.33;3.03;;;;;;;;;;10043003;28;20196;-60
2023/05/10 15:22:34;;;;;;;3.63;3.33;;;;;;;;;;10039992;28;20065;-60
2023/05/10 15:27:27;;;;;;;4.75;4.07;;;;;;;;;;10037589;28;20064;-60
2023/05/10 15:32:22;;;;;;;3.42;3.13;;;;;;;;;;10048700;28;20058;-60
2023/05/10 15:37:16;;;;;;;3.92;3.53;;;;;;;;;;10041514;28;20060;-60
2023/05/10 15:42:09;;;;;;;3.30;3.00;;;;;;;;;;10033336;28;20421;-59
2023/05/10 15:47:04;;;;;;;7.80;4.07;;;;;;;;;;10037732;28;20819;-60
2023/05/10 15:51:57;;;;;;;8.35;5.00;;;;;;;;;;10030608;28;20131;-61
2023/05/10 15:56:50;;;;;;;5.20;3.80;;;;;;;;;;10027786;28;20042;-61
2023/05/10 16:01:43;;;;;;;3.92;3.38;;;;;;;;;;10030021;28;20511;-61
2023/05/10 16:06:36;;;;;;;4.30;3.90;;;;;;;;;;10037505;28;20488;-61
2023/05/10 16:11:30;;;;;;;4.25;3.65;;;;;;;;;;10033731;28;20523;-61
2023/05/10 16:16:24;;;;;;;3.80;3.28;;;;;;;;;;10034431;28;20555;-61
2023/05/10 16:21:17;;;;;;;4.03;3.72;;;;;;;;;;10034818;28;20057;-61
2023/05/10 16:26:10;;;;;;;3.90;3.60;;;;;;;;;;10030216;28;20061;-60
2023/05/10 16:31:04;;;;;;;6.82;4.63;;;;;;;;;;10043936;28;20056;-61
2023/05/10 16:35:57;;;;;;;5.10;4.60;;;;;;;;;;10033010;28;20046;-61
2023/05/10 16:40:50;;;;;;;6.43;4.38;;;;;;;;;;10047054;28;20136;-60
2023/05/10 16:45:45;;;;;;;5.47;4.95;;;;;;;;;;10048650;28;20065;-60
2023/05/10 16:50:45;;;;;;;5.55;5.05;;;;;;;;;;10039994;28;20061;-60
2023/05/10 16:55:39;;;;;;;5.97;5.45;;;;;;;;;;10029147;28;20069;-60
2023/05/10 17:00:33;;;;;;;10.13;6.38;;;;;;;;;;10035670;28;20057;-60
2023/05/10 17:05:27;;;;;;;6.63;6.00;;;;;;;;;;10048462;28;20049;-60
2023/05/10 17:10:21;;;;;;;6.57;5.97;;;;;;;;;;10057003;28;20049;-59
2023/05/10 17:15:15;;;;;;;6.88;6.28;;;;;;;;;;10034149;28;20115;-60
2023/05/10 17:20:10;;;;;;;6.80;6.20;;;;;;;;;;10031891;28;20108;-61
2023/05/10 17:25:04;;;;;;;7.25;6.55;;;;;;;;;;10027073;28;20436;-60
2023/05/10 17:29:57;;;;;;;7.78;7.07;;;;;;;;;;10035296;28;20453;-60
2023/05/10 17:34:51;;;;;;;7.40;6.70;;;;;;;;;;10020574;28;20493;-59
2023/05/10 17:39:44;;;;;;;6.55;5.95;;;;;;;;;;10019623;28;20061;-60
2023/05/10 17:44:37;;;;;;;9.00;8.10;;;;;;;;;;10024691;28;20046;-60
2023/05/10 17:49:31;;;;;;;7.25;6.55;;;;;;;;;;10026848;28;20081;-60
2023/05/10 17:54:24;;;;;;;8.65;7.25;;;;;;;;;;10019569;28;20069;-59
2023/05/10 17:59:18;;;;;;;8.52;7.05;;;;;;;;;;10032790;28;20176;-59
2023/05/10 18:04:11;;;;;;;10.55;8.60;;;;;;;;;;10031151;28;20540;-59
2023/05/10 18:09:06;;;;;;;8.85;7.95;;;;;;;;;;10028893;28;20497;-60
2023/05/10 18:13:59;;;;;;;8.95;8.13;;;;;;;;;;10028429;28;20052;-60
2023/05/10 18:18:51;;;;;;;9.00;8.10;;;;;;;;;;10026074;28;20046;-60
2023/05/10 18:23:45;;;;;;;9.20;8.32;;;;;;;;;;10042407;28;20054;-61
2023/05/10 18:28:40;;;;;;;9.55;8.57;;;;;;;;;;10024178;28;20065;-60
2023/05/10 18:33:33;;;;;;;11.23;8.32;;;;;;;;;;10009669;28;20050;-61
2023/05/10 18:38:26;;;;;;;10.35;8.50;;;;;;;;;;10031197;28;20112;-60
2023/05/10 18:43:20;;;;;;;9.77;8.77;;;;;;;;;;10032139;28;20050;-60
2023/05/10 18:48:13;;;;;;;10.88;8.45;;;;;;;;;;10024044;28;20087;-60
2023/05/10 18:53:06;;;;;;;11.25;9.63;;;;;;;;;;10035255;28;20065;-61
2023/05/10 18:58:00;;;;;;;9.63;8.77;;;;;;;;;;10030759;28;20046;-61
2023/05/10 19:02:53;;;;;;;9.10;8.23;;;;;;;;;;10032333;28;20058;-63
2023/05/10 19:07:46;;;;;;;10.35;9.07;;;;;;;;;;10026190;28;20046;-61
2023/05/10 19:12:42;;;;;;;10.10;9.20;;;;;;;;;;10030589;28;20049;-59
2023/05/10 19:17:37;;;;;;;10.65;9.63;;;;;;;;;;10035603;28;20480;-59
2023/05/10 19:22:32;;;;;;;10.63;9.50;;;;;;;;;;10037073;28;20394;-61
2023/05/10 19:27:46;;;;;;;9.32;8.20;;;;;;;;;;10030763;28;20464;-61
2023/05/10 19:32:42;;;;;;;9.48;8.57;;;;;;;;;;10033519;28;20565;-60
2023/05/10 19:37:36;;;;;;;9.93;8.75;;;;;;;;;;10028404;28;20050;-60
2023/05/10 19:42:30;;;;;;;10.30;7.95;;;;;;;;;;10026990;28;20050;-60
2023/05/10 19:47:24;;;;;;;8.65;7.85;;;;;;;;;;10033101;28;20061;-60
2023/05/10 19:52:19;;;;;;;8.93;8.10;;;;;;;;;;10040645;28;20054;-60
2023/05/10 19:57:12;;;;;;;8.40;7.60;;;;;;;;;;10023866;28;20096;-61
2023/05/10 20:02:06;;;;;;;10.00;7.30;;;;;;;;;;10020882;28;20054;-61
2023/05/10 20:06:59;;;;;;;8.15;7.38;;;;;;;;;;10032121;28;20058;-61
2023/05/10 20:11:53;;;;;;;8.25;7.43;;;;;;;;;;10028346;28;20128;-61
2023/05/10 20:16:47;;;;;;;8.07;7.28;;;;;;;;;;10036212;28;20068;-61
2023/05/10 20:21:40;;;;;;;7.63;7.03;;;;;;;;;;10034014;28;20053;-60
2023/05/10 20:26:33;;;;;;;7.60;6.80;;;;;;;;;;10026095;28;20056;-61
2023/05/10 20:31:26;;;;;;;7.78;7.07;;;;;;;;;;10026230;28;20568;-61
2023/05/10 20:36:22;;;;;;;7.05;6.22;;;;;;;;;;10021722;28;20065;-60
2023/05/10 20:41:16;;;;;;;9.20;6.53;;;;;;;;;;10021473;28;20611;-61
2023/05/10 20:46:10;;;;;;;7.63;5.38;;;;;;;;;;10007369;28;20540;-62
2023/05/10 20:51:04;;;;;;;6.53;5.90;;;;;;;;;;10016419;28;20173;-61
2023/05/10 20:55:57;;;;;;;6.57;5.97;;;;;;;;;;10002066;28;20104;-61
2023/05/10 21:00:52;;;;;;;6.75;6.20;;;;;;;;;;10009253;28;20050;-61
2023/05/10 21:05:46;;;;;;;6.32;5.45;;;;;;;;;;10012202;28;20057;-60
2023/05/10 21:10:39;;;;;;;6.95;6.20;;;;;;;;;;10009212;28;20132;-61
2023/05/10 21:15:32;;;;;;;8.52;6.53;;;;;;;;;;10007709;28;20054;-61
2023/05/10 21:20:26;;;;;;;6.95;6.25;;;;;;;;;;10008758;28;20517;-61
2023/05/10 21:25:19;;;;;;;8.20;7.40;;;;;;;;;;10020174;28;20460;-60
2023/05/10 21:30:13;;;;;;;11.02;9.40;;;;;;;;;;10011392;28;20054;-61
2023/05/10 21:35:07;;;;;;;10.18;7.72;;;;;;;;;;10012231;28;20054;-60
2023/05/10 21:40:01;;;;;;;7.65;6.95;;;;;;;;;;10012784;28;20493;-61
2023/05/10 21:44:54;;;;;;;7.88;7.15;;;;;;;;;;10017750;28;20065;-59
2023/05/10 21:49:49;;;;;;;7.20;5.80;;;;;;;;;;10013084;28;20050;-59
2023/05/10 21:54:48;;;;;;;5.95;5.35;;;;;;;;;;10012571;28;20061;-60
2023/05/10 21:59:41;;;;;;;5.50;4.63;;;;;;;;;;10006360;28;20720;-59
2023/05/10 22:04:35;;;;;;;4.13;3.72;;;;;;;;;;10013459;28;20046;-59
2023/05/10 22:09:29;;;;;;;10.25;4.00;;;;;;;;;;10015878;28;20054;-61
2023/05/10 22:14:23;;;;;;;4.60;4.20;;;;;;;;;;10005530;28;20061;-61
2023/05/10 22:19:16;;;;;;;10.38;4.10;;;;;;;;;;10015884;28;20061;-60
2023/05/10 22:24:09;;;;;;;5.05;4.60;;;;;;;;;;10020923;28;20386;-63
2023/05/10 22:29:02;;;;;;;6.40;5.32;;;;;;;;;;10030149;28;20124;-60
2023/05/10 22:33:56;;;;;;;5.03;4.40;;;;;;;;;;10034712;28;20132;-62
2023/05/10 22:38:48;;;;;;;4.85;4.40;;;;;;;;;;10035667;28;20154;-63
2023/05/10 22:43:43;;;;;;;5.32;4.63;;;;;;;;;;10035186;28;20054;-62
2023/05/10 22:48:37;;;;;;;4.88;4.35;;;;;;;;;;10031769;28;20394;-61
2023/05/10 22:53:30;;;;;;;4.63;4.22;;;;;;;;;;10038868;28;20492;-61
2023/05/10 22:58:24;;;;;;;5.22;4.63;;;;;;;;;;10040349;28;20049;-62
2023/05/10 23:03:18;;;;;;;5.13;4.57;;;;;;;;;;10040220;28;20052;-62
2023/05/10 23:08:12;;;;;;;4.65;4.25;;;;;;;;;;10038679;28;20137;-63
2023/05/10 23:13:06;;;;;;;4.50;4.10;;;;;;;;;;10033947;28;20085;-63
2023/05/10 23:17:59;;;;;;;4.28;3.88;;;;;;;;;;10033839;28;20493;-63
2023/05/10 23:22:53;;;;;;;4.90;4.10;;;;;;;;;;10031933;28;20086;-62
2023/05/10 23:27:47;;;;;;;5.18;4.22;;;;;;;;;;10032232;28;20402;-62
2023/05/10 23:32:40;;;;;;;5.40;4.90;;;;;;;;;;10030662;28;20417;-62
2023/05/10 23:37:35;;;;;;;4.88;4.38;;;;;;;;;;10030648;28;20046;-62
2023/05/10 23:42:28;;;;;;;5.28;3.80;;;;;;;;;;10039464;28;20460;-62
2023/05/10 23:47:20;;;;;;;4.38;3.80;;;;;;;;;;10031211;28;20448;-61
2023/05/10 23:52:15;;;;;;;5.07;3.80;;;;;;;;;;10029457;28;20128;-61
2023/05/10 23:57:09;;;;;;;5.68;3.55;;;;;;;;;;10031424;28;20057;-62
